Time;durP1;ratioP1;P1;durP2;ratioP2;P2;SDS_P1;SDS_P2;PMS_P1;PMS_P2;Temp;Humidity;BMP_temperature;BMP_pressure;BME280_temperature;BME280_humidity;BME280_pressure;Samples;Min_cycle;Max_cycle;Signal;HPM_P1;HPM_P2
2021/01/08 00:00:52;;;;;;;2.17;0.93;;;;;;;;;;5077784;28;20059;-61
2021/01/08 00:03:20;;;;;;;3.83;1.27;;;;;;;;;;5081339;28;20045;-61
2021/01/08 00:05:46;;;;;;;1.33;0.90;;;;;;;;;;5081247;28;20044;-60
2021/01/08 00:08:11;;;;;;;2.20;1.05;;;;;;;;;;5057309;28;20033;-61
2021/01/08 00:10:37;;;;;;;3.70;1.10;;;;;;;;;;5061670;28;20064;-61
2021/01/08 00:13:04;;;;;;;1.95;0.98;;;;;;;;;;5059726;28;20043;-61
2021/01/08 00:15:30;;;;;;;2.17;0.80;;;;;;;;;;5063124;28;20502;-61
2021/01/08 00:17:56;;;;;;;2.45;0.93;;;;;;;;;;5072351;28;20107;-61
2021/01/08 00:20:23;;;;;;;2.25;1.10;;;;;;;;;;5082063;28;20032;-61
2021/01/08 00:22:49;;;;;;;2.95;1.08;;;;;;;;;;5061838;28;20052;-61
2021/01/08 00:25:15;;;;;;;3.80;1.30;;;;;;;;;;5039524;28;20033;-61
2021/01/08 00:27:41;;;;;;;1.85;1.02;;;;;;;;;;5042328;28;20048;-61
2021/01/08 00:30:10;;;;;;;2.97;1.10;;;;;;;;;;5040944;28;20022;-60
2021/01/08 00:32:36;;;;;;;2.85;1.17;;;;;;;;;;5044146;28;20041;-61
2021/01/08 00:35:02;;;;;;;1.75;0.90;;;;;;;;;;5061084;28;20044;-61
2021/01/08 00:37:30;;;;;;;2.38;1.00;;;;;;;;;;5053005;28;20026;-61
2021/01/08 00:39:56;;;;;;;2.42;1.00;;;;;;;;;;5041258;28;20087;-61
2021/01/08 00:42:22;;;;;;;1.55;0.85;;;;;;;;;;5044925;28;20041;-61
2021/01/08 00:44:48;;;;;;;2.47;1.05;;;;;;;;;;5043448;28;20037;-61
2021/01/08 00:47:14;;;;;;;2.13;1.20;;;;;;;;;;5044335;28;20115;-61
2021/01/08 00:49:40;;;;;;;2.30;1.08;;;;;;;;;;5059474;28;20052;-61
2021/01/08 00:52:06;;;;;;;4.72;1.20;;;;;;;;;;5072967;28;20028;-61
2021/01/08 00:54:33;;;;;;;1.83;1.00;;;;;;;;;;5079590;28;20048;-61
2021/01/08 00:56:59;;;;;;;1.55;1.05;;;;;;;;;;5082540;28;20089;-61
2021/01/08 00:59:25;;;;;;;4.35;0.93;;;;;;;;;;5069270;28;20057;-61
2021/01/08 01:01:51;;;;;;;3.20;1.00;;;;;;;;;;5063894;28;20093;-61
2021/01/08 01:04:17;;;;;;;4.05;1.00;;;;;;;;;;5069660;28;20117;-61
2021/01/08 01:06:43;;;;;;;8.82;1.00;;;;;;;;;;5065886;28;20054;-60
2021/01/08 01:09:10;;;;;;;2.60;1.00;;;;;;;;;;5077983;28;20056;-61
2021/01/08 01:11:38;;;;;;;2.47;1.10;;;;;;;;;;5075104;28;20059;-61
2021/01/08 01:14:04;;;;;;;3.30;1.10;;;;;;;;;;5044759;28;20059;-61
2021/01/08 01:16:30;;;;;;;4.32;1.25;;;;;;;;;;5088184;28;20040;-61
2021/01/08 01:18:58;;;;;;;5.43;1.38;;;;;;;;;;5079291;28;20117;-61
2021/01/08 01:21:24;;;;;;;4.70;1.20;;;;;;;;;;5082275;28;20032;-61
2021/01/08 01:23:50;;;;;;;2.40;1.00;;;;;;;;;;5081371;28;20036;-61
2021/01/08 01:26:16;;;;;;;5.07;1.20;;;;;;;;;;5080348;28;20036;-61
2021/01/08 01:28:43;;;;;;;6.82;1.60;;;;;;;;;;5082676;28;20048;-61
2021/01/08 01:31:09;;;;;;;2.17;0.98;;;;;;;;;;5080386;28;20068;-61
2021/01/08 01:33:37;;;;;;;2.40;1.08;;;;;;;;;;5082229;28;20040;-61
2021/01/08 01:36:04;;;;;;;3.40;1.00;;;;;;;;;;5066098;28;20121;-61
2021/01/08 01:38:30;;;;;;;1.70;0.98;;;;;;;;;;5077925;28;20303;-61
2021/01/08 01:40:56;;;;;;;2.08;0.90;;;;;;;;;;5078674;28;20075;-61
2021/01/08 01:43:23;;;;;;;1.75;0.95;;;;;;;;;;5083615;28;20534;-61
2021/01/08 01:45:50;;;;;;;2.08;1.00;;;;;;;;;;5079669;28;20090;-61
2021/01/08 01:48:16;;;;;;;2.30;1.17;;;;;;;;;;5084597;28;20129;-61
2021/01/08 01:50:42;;;;;;;3.17;1.17;;;;;;;;;;5061412;28;20095;-60
2021/01/08 01:53:08;;;;;;;1.58;0.85;;;;;;;;;;5058439;28;20064;-60
2021/01/08 01:55:34;;;;;;;4.03;1.17;;;;;;;;;;5038843;28;20049;-61
2021/01/08 01:58:00;;;;;;;2.08;0.98;;;;;;;;;;5054137;28;20102;-61
2021/01/08 02:00:26;;;;;;;2.03;1.10;;;;;;;;;;5062781;28;20110;-61
2021/01/08 02:02:57;;;;;;;2.67;1.10;;;;;;;;;;5071327;28;20371;-61
2021/01/08 02:05:24;;;;;;;3.67;1.40;;;;;;;;;;5061866;28;20036;-61
2021/01/08 02:07:53;;;;;;;2.03;0.90;;;;;;;;;;5040425;28;20099;-61
2021/01/08 02:10:20;;;;;;;2.20;1.13;;;;;;;;;;5042903;28;20113;-61
2021/01/08 02:12:46;;;;;;;4.70;1.52;;;;;;;;;;5058342;28;20037;-61
2021/01/08 02:15:13;;;;;;;2.88;1.08;;;;;;;;;;5078894;28;20052;-61
2021/01/08 02:17:39;;;;;;;2.83;1.17;;;;;;;;;;5051333;28;20033;-61
2021/01/08 02:20:08;;;;;;;2.90;1.20;;;;;;;;;;5045192;28;20053;-61
2021/01/08 02:22:39;;;;;;;1.98;1.10;;;;;;;;;;5041256;28;20086;-61
2021/01/08 02:25:10;;;;;;;3.00;1.00;;;;;;;;;;5042110;28;20041;-61
2021/01/08 02:27:37;;;;;;;4.70;1.23;;;;;;;;;;5038373;28;20056;-61
2021/01/08 02:30:03;;;;;;;2.85;1.30;;;;;;;;;;5043415;28;20045;-61
2021/01/08 02:32:31;;;;;;;3.78;1.20;;;;;;;;;;5039776;28;20349;-61
2021/01/08 02:34:57;;;;;;;1.67;0.93;;;;;;;;;;5041194;28;20022;-61
2021/01/08 02:37:23;;;;;;;1.75;0.90;;;;;;;;;;5038404;28;20041;-61
2021/01/08 02:39:49;;;;;;;2.17;0.93;;;;;;;;;;5042636;28;20041;-61
2021/01/08 02:42:18;;;;;;;2.05;1.02;;;;;;;;;;5044285;28;20033;-61
2021/01/08 02:44:44;;;;;;;2.63;1.00;;;;;;;;;;5062496;28;20088;-61
2021/01/08 02:47:09;;;;;;;8.15;1.08;;;;;;;;;;5058227;28;20049;-61
2021/01/08 02:49:37;;;;;;;2.10;1.00;;;;;;;;;;5042467;28;20046;-60
2021/01/08 02:52:05;;;;;;;1.70;0.90;;;;;;;;;;5057400;28;20055;-61
2021/01/08 02:54:31;;;;;;;2.55;1.10;;;;;;;;;;5074643;28;20029;-61
2021/01/08 02:56:58;;;;;;;1.38;0.75;;;;;;;;;;5061803;28;20037;-61
2021/01/08 02:59:26;;;;;;;1.73;1.10;;;;;;;;;;5057019;28;20117;-61
2021/01/08 03:01:52;;;;;;;1.92;1.00;;;;;;;;;;5060516;28;20044;-61
2021/01/08 03:04:19;;;;;;;1.92;1.00;;;;;;;;;;5065258;28;20036;-61
2021/01/08 03:06:46;;;;;;;2.28;0.85;;;;;;;;;;5058332;28;20056;-61
2021/01/08 03:09:12;;;;;;;1.67;0.93;;;;;;;;;;5069484;28;20101;-61
2021/01/08 03:11:38;;;;;;;1.35;0.85;;;;;;;;;;5081475;28;20052;-61
2021/01/08 03:14:05;;;;;;;2.45;0.80;;;;;;;;;;5076978;28;20050;-61
2021/01/08 03:16:32;;;;;;;2.80;0.90;;;;;;;;;;5080626;28;20036;-60
2021/01/08 03:18:58;;;;;;;2.15;1.10;;;;;;;;;;5077358;28;20057;-60
2021/01/08 03:21:24;;;;;;;1.92;0.90;;;;;;;;;;5080425;28;20098;-61
2021/01/08 03:23:50;;;;;;;2.05;0.77;;;;;;;;;;5078770;28;20089;-61
2021/01/08 03:26:16;;;;;;;2.22;0.95;;;;;;;;;;5081707;28;20051;-61
2021/01/08 03:28:42;;;;;;;2.92;1.17;;;;;;;;;;5079226;28;20048;-61
2021/01/08 03:31:08;;;;;;;1.90;0.90;;;;;;;;;;5059334;28;20040;-61
2021/01/08 03:33:35;;;;;;;1.75;0.90;;;;;;;;;;5063253;28;20049;-61
2021/01/08 03:36:01;;;;;;;2.20;0.93;;;;;;;;;;5076581;28;20040;-61
2021/01/08 03:38:27;;;;;;;2.50;1.00;;;;;;;;;;5066379;28;20041;-61
2021/01/08 03:40:53;;;;;;;6.47;1.10;;;;;;;;;;5060783;28;20064;-61
2021/01/08 03:43:20;;;;;;;1.42;1.00;;;;;;;;;;5080305;28;20044;-61
2021/01/08 03:45:46;;;;;;;2.15;0.70;;;;;;;;;;5078116;28;20109;-61
2021/01/08 03:48:12;;;;;;;1.83;0.80;;;;;;;;;;5082641;28;20052;-61
2021/01/08 03:50:40;;;;;;;2.58;1.02;;;;;;;;;;5067397;28;20494;-61
2021/01/08 03:53:07;;;;;;;2.90;1.10;;;;;;;;;;5061333;28;20056;-61
2021/01/08 03:55:36;;;;;;;1.70;0.82;;;;;;;;;;5064756;28;20059;-61
2021/01/08 03:58:02;;;;;;;2.95;0.80;;;;;;;;;;5081613;28;20093;-61
2021/01/08 04:00:28;;;;;;;1.02;0.75;;;;;;;;;;5077870;28;20039;-62
2021/01/08 04:02:54;;;;;;;4.50;1.10;;;;;;;;;;5080095;28;20040;-62
2021/01/08 04:05:20;;;;;;;2.80;1.00;;;;;;;;;;5093622;28;20044;-62
2021/01/08 04:07:47;;;;;;;2.97;1.40;;;;;;;;;;5077837;28;20055;-61
2021/01/08 04:10:13;;;;;;;2.03;0.82;;;;;;;;;;5060588;28;20045;-60
2021/01/08 04:12:44;;;;;;;1.98;0.90;;;;;;;;;;5076413;28;20044;-61
2021/01/08 04:15:10;;;;;;;1.88;1.00;;;;;;;;;;5096995;28;20044;-61
2021/01/08 04:17:36;;;;;;;1.33;0.80;;;;;;;;;;5078138;28;20441;-61
2021/01/08 04:20:02;;;;;;;4.03;1.08;;;;;;;;;;5084246;28;20055;-61
2021/01/08 04:22:29;;;;;;;3.03;1.00;;;;;;;;;;5080358;28;20032;-61
2021/01/08 04:24:56;;;;;;;2.97;0.95;;;;;;;;;;5083454;28;20117;-61
2021/01/08 04:27:22;;;;;;;2.80;1.10;;;;;;;;;;5079501;28;20140;-61
2021/01/08 04:29:48;;;;;;;2.60;0.80;;;;;;;;;;5083708;28;20141;-61
2021/01/08 04:32:14;;;;;;;2.38;1.10;;;;;;;;;;5070892;28;20086;-61
2021/01/08 04:34:40;;;;;;;4.18;1.23;;;;;;;;;;5064878;28;20047;-61
2021/01/08 04:37:06;;;;;;;2.30;1.00;;;;;;;;;;5068063;28;20036;-60
2021/01/08 04:39:32;;;;;;;1.63;1.02;;;;;;;;;;5083159;28;20080;-60
2021/01/08 04:41:59;;;;;;;2.90;1.25;;;;;;;;;;5078458;28;20071;-61
2021/01/08 04:44:25;;;;;;;4.15;1.05;;;;;;;;;;5082880;28;20426;-61
2021/01/08 04:46:52;;;;;;;1.65;0.82;;;;;;;;;;5079807;28;20052;-61
2021/01/08 04:49:18;;;;;;;2.47;0.90;;;;;;;;;;5079394;28;20047;-61
2021/01/08 04:51:45;;;;;;;2.78;1.10;;;;;;;;;;5063264;28;20049;-61
2021/01/08 04:54:11;;;;;;;3.28;1.13;;;;;;;;;;5061784;28;20044;-61
2021/01/08 04:56:39;;;;;;;2.60;1.02;;;;;;;;;;5064813;28;20033;-61
2021/01/08 04:59:06;;;;;;;2.85;1.10;;;;;;;;;;5059164;28;20051;-60
2021/01/08 05:01:32;;;;;;;3.38;1.48;;;;;;;;;;5065875;28;20048;-61
2021/01/08 05:03:57;;;;;;;3.08;1.17;;;;;;;;;;5075370;28;20064;-60
2021/01/08 05:06:24;;;;;;;3.42;1.48;;;;;;;;;;5086407;28;20041;-61
2021/01/08 05:08:50;;;;;;;4.20;1.60;;;;;;;;;;5081459;28;20102;-63
2021/01/08 05:11:20;;;;;;;2.70;1.25;;;;;;;;;;5072734;28;20029;-61
2021/01/08 05:13:50;;;;;;;4.47;1.23;;;;;;;;;;5062379;28;20045;-61
2021/01/08 05:16:17;;;;;;;3.05;1.17;;;;;;;;;;5062893;28;20051;-61
2021/01/08 05:18:43;;;;;;;3.53;1.48;;;;;;;;;;5059323;28;20041;-61
2021/01/08 05:21:09;;;;;;;3.33;1.55;;;;;;;;;;5079917;28;20375;-61
2021/01/08 05:23:36;;;;;;;3.90;1.58;;;;;;;;;;5050828;28;20244;-61
2021/01/08 05:26:02;;;;;;;3.50;1.65;;;;;;;;;;5043299;28;20119;-61
2021/01/08 05:28:28;;;;;;;3.28;1.35;;;;;;;;;;5049610;28;20045;-61
2021/01/08 05:30:56;;;;;;;2.08;1.02;;;;;;;;;;5047827;28;20052;-61
2021/01/08 05:33:23;;;;;;;2.22;1.13;;;;;;;;;;5042977;28;20123;-61
2021/01/08 05:35:50;;;;;;;2.17;1.23;;;;;;;;;;5056693;28;20073;-61
2021/01/08 05:38:20;;;;;;;2.90;1.42;;;;;;;;;;5079377;28;20107;-61
2021/01/08 05:40:46;;;;;;;3.22;1.30;;;;;;;;;;5059754;28;20046;-61
2021/01/08 05:43:13;;;;;;;3.28;1.30;;;;;;;;;;5063147;28;20053;-61
2021/01/08 05:45:38;;;;;;;2.00;1.17;;;;;;;;;;5045586;28;20099;-61
2021/01/08 05:48:06;;;;;;;3.63;1.30;;;;;;;;;;5040622;28;20049;-61
2021/01/08 05:50:33;;;;;;;3.08;1.30;;;;;;;;;;5052179;28;20040;-61
2021/01/08 05:53:03;;;;;;;1.23;0.85;;;;;;;;;;5079001;28;20036;-61
2021/01/08 05:55:33;;;;;;;2.20;1.17;;;;;;;;;;5079985;28;20051;-61
2021/01/08 05:57:59;;;;;;;3.00;1.35;;;;;;;;;;5062711;28;20113;-61
2021/01/08 06:00:25;;;;;;;2.83;1.30;;;;;;;;;;5058754;28;20056;-61
2021/01/08 06:02:52;;;;;;;2.63;1.20;;;;;;;;;;5083866;28;20047;-61
2021/01/08 06:05:19;;;;;;;2.03;1.13;;;;;;;;;;5056353;28;20032;-61
2021/01/08 06:07:48;;;;;;;4.60;1.35;;;;;;;;;;5044463;28;20029;-61
2021/01/08 06:10:15;;;;;;;1.50;0.95;;;;;;;;;;5041794;28;20048;-61
2021/01/08 06:12:43;;;;;;;3.20;1.10;;;;;;;;;;5040493;28;20068;-61
2021/01/08 06:15:11;;;;;;;2.25;1.25;;;;;;;;;;5041931;28;20065;-61
2021/01/08 06:17:37;;;;;;;;;;;;;;;;;;5041030;28;20041;-61
2021/01/08 06:20:04;;;;;;;2.08;1.10;;;;;;;;;;5040964;28;19932;-61
2021/01/08 06:22:37;;;;;;;3.08;1.33;;;;;;;;;;5058211;28;20077;-60
2021/01/08 06:25:05;;;;;;;2.42;1.25;;;;;;;;;;5061741;28;20048;-61
2021/01/08 06:27:32;;;;;;;2.35;1.20;;;;;;;;;;5059698;28;20040;-61
2021/01/08 06:29:59;;;;;;;3.60;1.50;;;;;;;;;;5099351;28;20462;-61
2021/01/08 06:32:28;;;;;;;3.88;1.52;;;;;;;;;;5080803;28;20118;-61
2021/01/08 06:34:54;;;;;;;5.70;1.48;;;;;;;;;;5084109;28;20109;-61
2021/01/08 06:37:24;;;;;;;3.15;1.38;;;;;;;;;;5073381;28;20279;-61
2021/01/08 06:39:56;;;;;;;3.22;1.45;;;;;;;;;;5062328;28;20048;-61
2021/01/08 06:42:27;;;;;;;7.32;2.20;;;;;;;;;;5059242;28;20052;-61
2021/01/08 06:44:53;;;;;;;5.00;2.10;;;;;;;;;;5062090;28;20072;-61
2021/01/08 06:47:21;;;;;;;5.70;2.20;;;;;;;;;;5065702;28;20129;-61
2021/01/08 06:49:50;;;;;;;5.85;1.98;;;;;;;;;;5082642;28;20047;-61
2021/01/08 06:52:17;;;;;;;3.53;1.65;;;;;;;;;;5078196;28;20040;-61
2021/01/08 06:54:43;;;;;;;4.72;1.98;;;;;;;;;;5082373;28;20041;-61
2021/01/08 06:57:16;;;;;;;4.38;1.92;;;;;;;;;;5076840;28;20067;-61
2021/01/08 06:59:45;;;;;;;4.97;2.10;;;;;;;;;;5061810;28;20037;-60
2021/01/08 07:02:11;;;;;;;;;;;;;;;;;;5060018;28;20037;-61
2021/01/08 07:04:39;;;;;;;4.78;1.77;;;;;;;;;;5059601;28;19909;-61
2021/01/08 07:07:06;;;;;;;4.15;1.83;;;;;;;;;;5061563;28;20047;-61
2021/01/08 07:09:32;;;;;;;3.80;1.77;;;;;;;;;;5056030;28;20044;-61
2021/01/08 07:12:02;;;;;;;5.00;1.90;;;;;;;;;;5062167;28;20117;-61
2021/01/08 07:14:28;;;;;;;3.97;1.80;;;;;;;;;;5075105;28;20036;-61
2021/01/08 07:17:09;;;;;;;;;;;;;;;;;;;;;
2021/01/08 07:19:38;;;;;;;3.83;1.63;;;;;;;;;;5060567;28;20036;-61
2021/01/08 07:22:05;;;;;;;5.97;2.08;;;;;;;;;;5060385;28;20624;-61
2021/01/08 07:24:31;;;;;;;4.32;1.80;;;;;;;;;;5065044;28;20036;-61
2021/01/08 07:27:12;;;;;;;4.88;1.95;;;;;;;;;;5082619;28;20032;-61
2021/01/08 07:29:38;;;;;;;5.70;2.38;;;;;;;;;;5076476;28;20051;-61
2021/01/08 07:32:05;;;;;;;6.25;2.60;;;;;;;;;;5081523;28;20032;-61
2021/01/08 07:34:35;;;;;;;5.18;2.10;;;;;;;;;;5069428;28;20040;-61
2021/01/08 07:37:01;;;;;;;5.90;2.20;;;;;;;;;;5081900;28;20040;-61
2021/01/08 07:39:37;;;;;;;4.47;1.92;;;;;;;;;;5076571;28;20040;-61
2021/01/08 07:42:19;;;;;;;3.80;1.80;;;;;;;;;;5075963;28;20049;-61
2021/01/08 07:44:47;;;;;;;5.20;2.00;;;;;;;;;;5055014;28;20049;-61
2021/01/08 07:47:24;;;;;;;6.85;2.05;;;;;;;;;;5060305;28;20085;-62
2021/01/08 07:50:19;;;;;;;5.45;2.05;;;;;;;;;;5057799;28;20071;-61
2021/01/08 07:52:46;;;;;;;4.28;2.00;;;;;;;;;;4984037;28;20041;-61
2021/01/08 07:55:13;;;;;;;4.30;1.98;;;;;;;;;;5040459;28;20049;-61
2021/01/08 07:57:57;;;;;;;4.15;1.77;;;;;;;;;;5063694;28;20040;-61
2021/01/08 08:00:27;;;;;;;6.63;1.73;;;;;;;;;;5066754;28;20128;-61
2021/01/08 08:02:55;;;;;;;5.45;1.92;;;;;;;;;;5060554;28;20053;-61
2021/01/08 08:05:21;;;;;;;5.93;2.23;;;;;;;;;;5065426;28;20044;-61
2021/01/08 08:07:47;;;;;;;7.40;2.47;;;;;;;;;;5081535;28;20150;-61
2021/01/08 08:10:13;;;;;;;6.88;2.60;;;;;;;;;;5077068;28;20088;-61
2021/01/08 08:12:58;;;;;;;7.03;2.42;;;;;;;;;;5064545;28;20037;-61
2021/01/08 08:15:24;;;;;;;5.95;2.40;;;;;;;;;;5072692;28;20029;-61
2021/01/08 08:17:50;;;;;;;9.52;2.55;;;;;;;;;;5060495;28;20036;-61
2021/01/08 08:20:18;;;;;;;5.60;2.35;;;;;;;;;;5057944;28;20070;-61
2021/01/08 08:22:44;;;;;;;5.35;2.15;;;;;;;;;;5060011;28;20056;-61
2021/01/08 08:25:29;;;;;;;5.03;2.03;;;;;;;;;;5060721;28;20045;-61
2021/01/08 08:27:55;;;;;;;3.25;1.70;;;;;;;;;;5061079;28;20056;-61
2021/01/08 08:30:22;;;;;;;3.88;1.88;;;;;;;;;;5059137;28;20041;-61
2021/01/08 08:32:48;;;;;;;4.35;2.17;;;;;;;;;;5076968;28;20122;-61
2021/01/08 08:35:15;;;;;;;3.80;1.67;;;;;;;;;;5080472;28;20162;-61
2021/01/08 08:37:48;;;;;;;4.82;1.75;;;;;;;;;;5067421;28;20040;-61
2021/01/08 08:40:15;;;;;;;5.28;2.10;;;;;;;;;;5073704;28;20060;-61
2021/01/08 08:42:49;;;;;;;6.03;2.40;;;;;;;;;;5071763;28;20051;-61
2021/01/08 08:45:22;;;;;;;4.93;1.95;;;;;;;;;;5078703;28;20040;-60
2021/01/08 08:47:48;;;;;;;5.70;1.77;;;;;;;;;;5074250;28;20110;-61
2021/01/08 08:50:15;;;;;;;4.05;1.67;;;;;;;;;;5081269;28;20067;-61
2021/01/08 08:52:43;;;;;;;6.20;1.98;;;;;;;;;;5093844;28;20068;-61
2021/01/08 08:55:24;;;;;;;7.65;1.70;;;;;;;;;;5079978;28;20043;-60
2021/01/08 08:57:50;;;;;;;4.82;1.95;;;;;;;;;;5076037;28;20048;-61
2021/01/08 09:00:19;;;;;;;4.38;1.85;;;;;;;;;;5080606;28;20043;-61
2021/01/08 09:02:45;;;;;;;4.20;1.85;;;;;;;;;;5067028;28;20040;-61
2021/01/08 09:05:12;;;;;;;5.88;2.22;;;;;;;;;;5079140;28;20041;-60
2021/01/08 09:07:40;;;;;;;6.63;2.05;;;;;;;;;;5073880;28;20037;-61
2021/01/08 09:10:09;;;;;;;4.78;1.83;;;;;;;;;;5063149;28;20041;-61
2021/01/08 09:12:43;;;;;;;10.85;3.80;;;;;;;;;;5061942;28;20043;-61
2021/01/08 09:15:14;;;;;;;6.45;2.53;;;;;;;;;;5063058;28;20122;-61
2021/01/08 09:17:43;;;;;;;6.18;2.25;;;;;;;;;;5063463;28;20411;-61
2021/01/08 09:20:13;;;;;;;5.22;2.20;;;;;;;;;;5082439;28;20121;-61
2021/01/08 09:22:39;;;;;;;4.70;1.95;;;;;;;;;;5079799;28;20028;-61
2021/01/08 09:25:07;;;;;;;3.53;1.90;;;;;;;;;;5064553;28;20079;-61
2021/01/08 09:27:34;;;;;;;6.40;1.92;;;;;;;;;;5061631;28;20025;-61
2021/01/08 09:30:07;;;;;;;6.78;2.00;;;;;;;;;;5060412;28;20118;-61
2021/01/08 09:32:35;;;;;;;4.72;2.40;;;;;;;;;;5062854;28;20048;-62
2021/01/08 09:35:03;;;;;;;3.40;1.50;;;;;;;;;;5077586;28;20041;-61
2021/01/08 09:37:34;;;;;;;5.68;2.10;;;;;;;;;;5068864;28;20043;-61
2021/01/08 09:40:00;;;;;;;6.47;2.15;;;;;;;;;;5063930;28;20040;-61
2021/01/08 09:42:34;;;;;;;4.85;1.98;;;;;;;;;;5071204;28;20040;-61
2021/01/08 09:45:00;;;;;;;7.07;2.22;;;;;;;;;;5065348;28;20032;-61
2021/01/08 09:47:34;;;;;;;5.63;1.58;;;;;;;;;;5063049;28;20036;-61
2021/01/08 09:50:01;;;;;;;3.15;1.70;;;;;;;;;;5069707;28;20477;-61
2021/01/08 09:52:27;;;;;;;7.13;1.58;;;;;;;;;;5083928;28;20044;-61
2021/01/08 09:54:54;;;;;;;4.38;1.90;;;;;;;;;;5077884;28;20025;-61
2021/01/08 09:57:24;;;;;;;4.57;1.83;;;;;;;;;;5083890;28;20052;-61
2021/01/08 09:59:56;;;;;;;5.50;1.50;;;;;;;;;;5071237;28;20042;-61
2021/01/08 10:02:36;;;;;;;2.55;0.90;;;;;;;;;;5061861;28;20045;-61
2021/01/08 10:05:03;;;;;;;3.40;1.40;;;;;;;;;;5057000;28;20044;-61
2021/01/08 10:07:38;;;;;;;2.33;1.17;;;;;;;;;;5062774;28;20049;-61
2021/01/08 10:10:05;;;;;;;3.05;1.20;;;;;;;;;;5065998;28;20217;-61
2021/01/08 10:12:43;;;;;;;4.47;1.58;;;;;;;;;;5082073;28;20077;-61
2021/01/08 10:15:09;;;;;;;4.17;1.40;;;;;;;;;;5074877;28;20055;-61
2021/01/08 10:17:43;;;;;;;5.97;2.20;;;;;;;;;;5077814;28;20037;-61
2021/01/08 10:20:11;;;;;;;5.03;2.10;;;;;;;;;;5061993;28;20388;-61
2021/01/08 10:22:45;;;;;;;1.90;1.10;;;;;;;;;;5082322;28;20036;-61
2021/01/08 10:25:24;;;;;;;3.70;1.30;;;;;;;;;;5078069;28;20032;-61
2021/01/08 10:27:51;;;;;;;2.58;1.35;;;;;;;;;;5060933;28;20041;-61
2021/01/08 10:30:17;;;;;;;2.72;1.33;;;;;;;;;;5076903;28;20052;-61
2021/01/08 10:32:45;;;;;;;1.67;0.88;;;;;;;;;;5079108;28;20043;-61
2021/01/08 10:35:12;;;;;;;2.67;1.20;;;;;;;;;;5062678;28;20065;-61
2021/01/08 10:37:38;;;;;;;1.42;0.90;;;;;;;;;;5067348;28;20036;-61
2021/01/08 10:40:05;;;;;;;3.13;1.23;;;;;;;;;;5080736;28;20088;-61
2021/01/08 10:42:31;;;;;;;2.65;0.93;;;;;;;;;;5078698;28;20040;-61
2021/01/08 10:44:57;;;;;;;3.95;1.08;;;;;;;;;;5062332;28;20064;-61
2021/01/08 10:47:23;;;;;;;1.65;0.80;;;;;;;;;;5073325;28;20614;-61
2021/01/08 10:49:51;;;;;;;2.55;1.10;;;;;;;;;;5082939;28;20076;-61
2021/01/08 10:52:17;;;;;;;2.92;1.10;;;;;;;;;;5066272;28;20100;-62
2021/01/08 10:54:43;;;;;;;2.15;1.10;;;;;;;;;;5061928;28;20033;-61
2021/01/08 10:57:14;;;;;;;2.85;1.10;;;;;;;;;;5067797;28;20048;-61
2021/01/08 10:59:40;;;;;;;1.90;1.00;;;;;;;;;;5081140;28;20040;-61
2021/01/08 11:02:06;;;;;;;2.85;1.25;;;;;;;;;;5078016;28;20126;-61
2021/01/08 11:04:32;;;;;;;3.72;1.02;;;;;;;;;;5097591;28;20036;-61
2021/01/08 11:06:59;;;;;;;2.17;1.23;;;;;;;;;;5064266;28;20100;-61
2021/01/08 11:09:25;;;;;;;1.33;0.88;;;;;;;;;;5061995;28;20044;-61
2021/01/08 11:11:51;;;;;;;4.80;1.60;;;;;;;;;;5059333;28;20130;-61
2021/01/08 11:14:17;;;;;;;1.92;0.98;;;;;;;;;;5081822;28;20032;-61
2021/01/08 11:16:43;;;;;;;3.03;1.08;;;;;;;;;;5080807;28;20042;-61
2021/01/08 11:19:09;;;;;;;3.08;1.30;;;;;;;;;;5077675;28;20120;-61
2021/01/08 11:21:35;;;;;;;2.05;0.82;;;;;;;;;;5081723;28;20072;-61
2021/01/08 11:24:02;;;;;;;2.40;1.15;;;;;;;;;;5076061;28;20040;-61
2021/01/08 11:26:28;;;;;;;2.70;1.13;;;;;;;;;;5078749;28;20089;-61
2021/01/08 11:28:54;;;;;;;2.55;1.00;;;;;;;;;;5063064;28;20117;-61
2021/01/08 11:31:20;;;;;;;2.20;1.08;;;;;;;;;;5054971;28;20041;-61
2021/01/08 11:33:46;;;;;;;1.65;0.80;;;;;;;;;;5057868;28;20085;-61
2021/01/08 11:36:12;;;;;;;2.50;1.27;;;;;;;;;;5059964;28;20047;-61
2021/01/08 11:38:39;;;;;;;2.70;1.30;;;;;;;;;;5073486;28;20040;-61
2021/01/08 11:41:05;;;;;;;3.30;1.30;;;;;;;;;;5082503;28;20131;-61
2021/01/08 11:43:31;;;;;;;2.17;1.02;;;;;;;;;;5077894;28;20040;-61
2021/01/08 11:45:58;;;;;;;1.70;0.95;;;;;;;;;;5099342;28;20041;-61
2021/01/08 11:48:24;;;;;;;1.98;0.98;;;;;;;;;;5092777;28;20044;-61
2021/01/08 11:50:50;;;;;;;1.90;1.17;;;;;;;;;;5082799;28;20040;-61
2021/01/08 11:53:17;;;;;;;2.53;1.13;;;;;;;;;;5081982;28;20029;-61
2021/01/08 11:55:44;;;;;;;4.45;1.10;;;;;;;;;;5078250;28;20048;-62
2021/01/08 11:58:11;;;;;;;3.20;1.52;;;;;;;;;;5082780;28;20133;-61
2021/01/08 12:00:37;;;;;;;2.58;1.10;;;;;;;;;;5060565;28;20041;-61
2021/01/08 12:03:03;;;;;;;2.40;0.90;;;;;;;;;;5062961;28;20043;-61
2021/01/08 12:05:29;;;;;;;2.03;0.88;;;;;;;;;;5058796;28;20043;-61
2021/01/08 12:07:55;;;;;;;2.30;0.93;;;;;;;;;;5061994;28;20059;-61
2021/01/08 12:10:21;;;;;;;1.17;0.90;;;;;;;;;;5058896;28;20032;-61
2021/01/08 12:12:51;;;;;;;1.70;0.93;;;;;;;;;;5062438;28;20041;-61
2021/01/08 12:15:18;;;;;;;2.85;1.23;;;;;;;;;;5060156;28;20033;-62
2021/01/08 12:17:44;;;;;;;2.65;1.15;;;;;;;;;;5062624;28;20033;-61
2021/01/08 12:20:11;;;;;;;2.35;1.05;;;;;;;;;;5076793;28;20054;-61
2021/01/08 12:22:40;;;;;;;1.65;0.93;;;;;;;;;;5080110;28;20064;-61
2021/01/08 12:25:06;;;;;;;1.85;0.90;;;;;;;;;;5076025;28;20040;-61
2021/01/08 12:27:32;;;;;;;1.95;1.08;;;;;;;;;;5080220;28;20062;-61
2021/01/08 12:29:58;;;;;;;1.13;0.90;;;;;;;;;;5074354;28;20049;-61
2021/01/08 12:32:25;;;;;;;1.25;0.80;;;;;;;;;;5081514;28;20036;-61
2021/01/08 12:34:51;;;;;;;1.50;0.75;;;;;;;;;;5079369;28;20415;-61
2021/01/08 12:37:17;;;;;;;2.08;1.00;;;;;;;;;;5060352;28;20044;-61
2021/01/08 12:39:43;;;;;;;2.60;1.10;;;;;;;;;;5083078;28;20032;-61
2021/01/08 12:42:13;;;;;;;12.63;1.20;;;;;;;;;;5062961;28;20114;-61
2021/01/08 12:44:41;;;;;;;1.80;0.90;;;;;;;;;;5053957;28;20041;-62
2021/01/08 12:47:09;;;;;;;4.47;1.23;;;;;;;;;;5076548;28;20081;-61
2021/01/08 12:49:36;;;;;;;3.78;1.25;;;;;;;;;;5083798;28;20051;-61
2021/01/08 12:52:03;;;;;;;2.63;0.93;;;;;;;;;;5069023;28;20040;-61
2021/01/08 12:54:29;;;;;;;1.45;0.90;;;;;;;;;;5063935;28;20057;-61
2021/01/08 12:56:55;;;;;;;3.47;1.08;;;;;;;;;;5060649;28;20122;-61
2021/01/08 12:59:21;;;;;;;4.80;1.85;;;;;;;;;;5064020;28;20128;-61
2021/01/08 13:01:47;;;;;;;3.25;1.45;;;;;;;;;;5059783;28;20053;-61
2021/01/08 13:04:13;;;;;;;2.25;1.20;;;;;;;;;;5064707;28;20032;-61
2021/01/08 13:06:40;;;;;;;3.58;1.33;;;;;;;;;;5062396;28;20039;-61
2021/01/08 13:09:06;;;;;;;2.58;1.30;;;;;;;;;;5062297;28;20048;-61
2021/01/08 13:11:32;;;;;;;1.75;1.00;;;;;;;;;;5078758;28;20041;-62
2021/01/08 13:13:58;;;;;;;3.50;1.20;;;;;;;;;;5083676;28;20028;-61
2021/01/08 13:16:25;;;;;;;3.15;1.30;;;;;;;;;;5083260;28;20040;-61
2021/01/08 13:18:51;;;;;;;1.95;1.13;;;;;;;;;;5096537;28;20040;-61
2021/01/08 13:21:17;;;;;;;2.33;1.20;;;;;;;;;;5099097;28;20044;-61
2021/01/08 13:23:45;;;;;;;2.47;1.02;;;;;;;;;;5080210;28;20048;-61
2021/01/08 13:26:11;;;;;;;2.30;1.15;;;;;;;;;;5099627;28;20031;-61
2021/01/08 13:28:37;;;;;;;1.55;1.02;;;;;;;;;;5078714;28;20051;-61
2021/01/08 13:31:03;;;;;;;1.98;0.82;;;;;;;;;;5085368;28;20044;-61
2021/01/08 13:33:32;;;;;;;1.70;0.95;;;;;;;;;;5068709;28;20044;-61
2021/01/08 13:35:58;;;;;;;3.13;1.02;;;;;;;;;;5065282;28;20112;-61
2021/01/08 13:38:24;;;;;;;2.03;1.10;;;;;;;;;;5069977;28;20044;-61
2021/01/08 13:40:51;;;;;;;3.00;1.17;;;;;;;;;;5103206;28;20044;-61
2021/01/08 13:43:18;;;;;;;3.63;1.20;;;;;;;;;;5064535;28;20214;-61
2021/01/08 13:45:44;;;;;;;3.45;1.13;;;;;;;;;;5063540;28;20033;-61
2021/01/08 13:48:10;;;;;;;2.53;1.20;;;;;;;;;;5062766;28;20047;-61
2021/01/08 13:50:36;;;;;;;2.40;1.08;;;;;;;;;;5082752;28;20036;-61
2021/01/08 13:53:02;;;;;;;2.03;1.10;;;;;;;;;;5077991;28;20056;-61
2021/01/08 13:55:28;;;;;;;5.97;1.80;;;;;;;;;;5062889;28;20073;-61
2021/01/08 13:57:55;;;;;;;2.63;1.20;;;;;;;;;;5062504;28;20037;-61
2021/01/08 14:00:21;;;;;;;2.95;1.30;;;;;;;;;;5060037;28;20055;-61
2021/01/08 14:02:48;;;;;;;2.88;1.35;;;;;;;;;;5063309;28;20059;-61
2021/01/08 14:05:14;;;;;;;3.90;1.20;;;;;;;;;;5072692;28;20048;-61
2021/01/08 14:07:40;;;;;;;2.05;1.33;;;;;;;;;;5084467;28;20040;-61
2021/01/08 14:10:06;;;;;;;2.45;1.23;;;;;;;;;;5066723;28;20059;-61
2021/01/08 14:12:32;;;;;;;3.67;1.40;;;;;;;;;;5062892;28;20041;-62
2021/01/08 14:14:59;;;;;;;6.65;1.90;;;;;;;;;;5059156;28;20053;-62
2021/01/08 14:17:25;;;;;;;3.65;1.52;;;;;;;;;;5061175;28;20056;-61
2021/01/08 14:19:51;;;;;;;2.92;1.30;;;;;;;;;;5082276;28;20059;-61
2021/01/08 14:22:17;;;;;;;5.13;1.48;;;;;;;;;;5083003;28;20069;-62
2021/01/08 14:24:43;;;;;;;2.08;1.10;;;;;;;;;;5074226;28;20056;-62
2021/01/08 14:27:09;;;;;;;3.90;1.48;;;;;;;;;;5062663;28;20043;-61
2021/01/08 14:29:35;;;;;;;2.80;1.27;;;;;;;;;;5059876;28;20042;-61
2021/01/08 14:32:02;;;;;;;3.45;1.42;;;;;;;;;;5083501;28;20050;-61
2021/01/08 14:34:28;;;;;;;1.98;1.08;;;;;;;;;;5099323;28;20048;-62
2021/01/08 14:36:58;;;;;;;2.03;1.23;;;;;;;;;;5076684;28;20055;-62
2021/01/08 14:39:24;;;;;;;5.75;1.23;;;;;;;;;;5082267;28;20036;-62
2021/01/08 14:41:52;;;;;;;3.17;1.15;;;;;;;;;;5077522;28;20055;-61
2021/01/08 14:44:18;;;;;;;2.67;1.30;;;;;;;;;;5081992;28;20044;-62
2021/01/08 14:46:44;;;;;;;3.53;1.55;;;;;;;;;;5077999;28;20160;-61